Airfield :
LOGIN :

Register | Disclaimer

   EN    FR    IT 

 










Legend :    VFR   Marginal VFR   IFR   Intensive IFR   Very Intensive IFR
Visi :
Ceiling :
>= 8 km
>= 3000ft
5 to 8 km
1000 to 3000 ft
1500m to 5 km
500 to 1000 ft
800 to 1500m
200 to 500 ft
< 800m
< 200 ft
Symbols :   Thunderstorms  Fog  Heavy snow  Heavy precipitations  Wind > 20 kt
SIGMETs :     Misc.  Thunderstorms  Icing  Turbulence  Mountain Waves  Volcanic Ashes






- Airport Elevation : 46 ft
- IATA code : GPA


LGRX - Araxos

CURRENT METAR :
  • 231550Z VRB03KT 9999 FEW020 26/19 Q1015 RMK FEW080 FEW180 BLU

EXPIRED METARs :
  • 231520Z VRB03KT 9999 FEW020 27/19 Q1015
  • 231450Z VRB03KT 9999 FEW020 28/19 Q1015
  • 231420Z VRB03KT 9999 FEW020 28/19 Q1015
  • 231350Z VRB03KT 9999 FEW020 28/17 Q1015 RMK FEW080 BLU
  • 231320Z VRB02KT 9999 FEW020 28/18 Q1016

TAF TAF LGRX
Valid from the 23 at 15:00 until the 24 at 00:00 UTC


231400Z 2315/2324 20010KT 9999 SCT020 SCT080
PROB40
TEMPO 2315/2324 5000 RA SCT020 BKN080
PROB40
TEMPO 2315/2324 3000 TSRA FEW018CB BKN020 BKN080



MET'MAP, your aeronautical weather chart ! - Copyright ORBIFLY December 2007 - Disclaimer

ORBIFLY MET'MAP TEAM :

Programming & Development : Alexandra Zaïnal
Concept & original design : Baudouin d'Aumeries
Assistance for programming : Marc-Olivier Méhu
Technical & hardware support : Manuel Goepfert

Contact : metmap@orbifly.com




SOURCES & CREDITS :

   NOAA